Time;durP1;ratioP1;P1;durP2;ratioP2;P2;SDS_P1;SDS_P2;PMS_P1;PMS_P2;Temp;Humidity;BMP_temperature;BMP_pressure;BME280_temperature;BME280_humidity;BME280_pressure;Samples;Min_cycle;Max_cycle;Signal;HPM_P1;HPM_P2
2023/06/13 00:00:49;;;;;;;2.30;1.90;;;;;;;13.21;72.77;99799.15;105315;1261;60681;-70
2023/06/13 00:03:19;;;;;;;12.30;2.20;;;;;;;13.27;72.67;99795.81;105420;1260;60970;-70
2023/06/13 00:05:48;;;;;;;4.80;2.40;;;;;;;13.26;72.77;99791.17;105262;1263;74070;-72
2023/06/13 00:08:21;;;;;;;4.30;2.60;;;;;;;13.25;72.80;99789.55;105205;1272;70394;-71
2023/06/13 00:10:48;;;;;;;4.30;2.30;;;;;;;13.24;72.69;99787.54;105204;1260;72681;-72
2023/06/13 00:13:17;;;;;;;3.60;3.10;;;;;;;13.21;72.77;99787.38;105456;1261;60509;-71
2023/06/13 00:16:03;;;;;;;7.50;2.40;;;;;;;13.16;72.89;99788.71;105421;1257;60451;-71
2023/06/13 00:18:31;;;;;;;4.60;2.50;;;;;;;13.13;72.73;99789.61;105301;1260;74044;-71
2023/06/13 00:20:59;;;;;;;3.60;2.00;;;;;;;13.11;72.89;99791.09;105245;1256;70422;-70
2023/06/13 00:23:26;;;;;;;4.00;2.10;;;;;;;13.19;72.85;99786.77;105143;1264;72669;-69
2023/06/13 00:25:54;;;;;;;7.10;2.40;;;;;;;13.26;72.88;99785.30;105353;1263;60623;-71
2023/06/13 00:28:22;;;;;;;5.70;2.10;;;;;;;13.25;72.80;99784.71;105342;1260;60420;-73
2023/06/13 00:30:51;;;;;;;4.90;2.50;;;;;;;13.19;72.77;99776.71;105221;1256;73274;-72
2023/06/13 00:33:19;;;;;;;3.60;2.20;;;;;;;13.18;72.92;99783.67;105386;1260;71466;-73
2023/06/13 00:35:46;;;;;;;4.70;2.50;;;;;;;13.15;72.77;99775.23;105240;1254;72650;-70
2023/06/13 00:38:17;;;;;;;11.20;2.60;;;;;;;13.12;72.96;99772.02;105497;1256;60458;-71
2023/06/13 00:40:44;;;;;;;3.70;2.20;;;;;;;13.10;72.83;99766.98;105230;1257;60686;-70
2023/06/13 00:43:12;;;;;;;4.60;2.30;;;;;;;13.06;73.14;99763.79;105143;1262;74024;-68
2023/06/13 00:45:39;;;;;;;5.00;2.20;;;;;;;13.12;72.95;99761.82;105112;1260;68735;-70
2023/06/13 00:48:07;;;;;;;2.70;2.10;;;;;;;13.16;72.95;99764.08;105120;1254;71475;-69
2023/06/13 00:50:45;;;;;;;3.40;2.60;;;;;;;13.13;72.94;99763.55;105151;1263;60409;-69
2023/06/13 00:53:17;;;;;;;3.70;2.50;;;;;;;13.09;73.12;99759.55;105155;1260;62272;-68
2023/06/13 00:55:46;;;;;;;5.40;2.20;;;;;;;13.07;73.04;99761.00;105325;1259;72860;-69
2023/06/13 00:58:13;;;;;;;3.40;2.60;;;;;;;13.05;72.95;99761.30;105165;1257;69812;-70
2023/06/13 01:00:43;;;;;;;4.50;2.40;;;;;;;13.02;73.04;99757.06;105236;1261;71385;-71
2023/06/13 01:03:15;;;;;;;5.00;2.60;;;;;;;13.00;73.20;99758.15;105118;1256;61728;-69
2023/06/13 01:05:43;;;;;;;5.40;2.20;;;;;;;13.08;73.12;99757.44;105157;1257;60374;-70
2023/06/13 01:08:13;;;;;;;3.80;2.30;;;;;;;13.12;73.21;99756.40;105140;1257;73063;-69
2023/06/13 01:10:41;;;;;;;5.20;2.40;;;;;;;13.11;73.11;99755.79;105304;1261;70696;-69
2023/06/13 01:13:16;;;;;;;4.30;2.50;;;;;;;13.10;73.17;99761.58;105372;1258;72836;-71
2023/06/13 01:15:51;;;;;;;6.40;2.40;;;;;;;13.07;73.17;99762.61;105274;1262;60526;-72
2023/06/13 01:18:22;;;;;;;4.10;2.60;;;;;;;13.04;73.07;99762.80;105416;1259;60535;-71
2023/06/13 01:20:57;;;;;;;4.10;2.50;;;;;;;13.02;73.21;99763.23;105186;1258;71657;-69
2023/06/13 01:23:52;;;;;;;6.70;2.20;;;;;;;13.00;73.19;99761.56;105220;1263;69968;-69
2023/06/13 01:26:45;;;;;;;4.90;2.30;;;;;;;13.08;73.05;99761.66;105336;1257;72940;-72
2023/06/13 01:29:15;;;;;;;6.50;3.00;;;;;;;13.10;72.91;99762.48;105405;1257;60524;-70
2023/06/13 01:31:43;;;;;;;7.20;2.30;;;;;;;13.08;72.93;99763.19;105292;1254;60519;-70
2023/06/13 01:34:12;;;;;;;4.90;2.50;;;;;;;13.07;72.96;99761.82;105195;1257;72567;-70
2023/06/13 01:36:40;;;;;;;5.10;2.40;;;;;;;13.05;72.82;99756.83;105212;1264;70600;-69
2023/06/13 01:39:07;;;;;;;3.30;2.60;;;;;;;13.03;72.52;99754.09;105258;1259;72181;-71
2023/06/13 01:41:35;;;;;;;3.90;2.60;;;;;;;13.00;72.54;99752.98;105172;1261;60307;-71
2023/06/13 01:44:04;;;;;;;3.80;2.50;;;;;;;12.97;72.76;99755.48;105214;1260;60539;-72
2023/06/13 01:46:55;;;;;;;5.40;2.80;;;;;;;12.95;72.97;99753.36;105199;1261;73786;-69
2023/06/13 01:49:52;;;;;;;4.50;2.40;;;;;;;13.06;72.79;99751.79;105138;1261;72161;-71
2023/06/13 01:52:26;;;;;;;4.90;2.10;;;;;;;13.09;72.50;99753.02;105144;1259;72676;-70
2023/06/13 01:54:57;;;;;;;3.80;2.50;;;;;;;13.06;72.65;99758.27;105232;1260;62707;-71
2023/06/13 01:57:28;;;;;;;7.10;3.00;;;;;;;13.05;72.42;99756.20;105274;1261;60345;-70
2023/06/13 01:59:55;;;;;;;5.90;2.60;;;;;;;13.03;72.13;99756.80;105220;1261;72717;-71
2023/06/13 02:02:23;;;;;;;3.30;2.50;;;;;;;13.01;71.99;99755.25;105279;1258;69952;-70
2023/06/13 02:04:51;;;;;;;7.90;2.70;;;;;;;12.97;71.87;99754.20;105199;1259;72698;-72
2023/06/13 02:07:19;;;;;;;5.60;2.30;;;;;;;12.93;71.96;99757.20;105319;1258;60446;-71
2023/06/13 02:09:46;;;;;;;2.70;2.10;;;;;;;12.89;71.91;99756.40;105314;1257;60483;-70
2023/06/13 02:12:17;;;;;;;5.60;2.20;;;;;;;12.87;71.87;99759.33;105139;1262;74170;-71
2023/06/13 02:14:44;;;;;;;6.00;2.00;;;;;;;12.94;71.83;99759.73;105483;1257;70115;-71
2023/06/13 02:17:12;;;;;;;7.40;2.30;;;;;;;13.01;71.96;99757.67;105654;1257;72744;-73
2023/06/13 02:19:40;;;;;;;3.70;2.50;;;;;;;13.02;71.90;99756.40;105354;1260;60436;-69
2023/06/13 02:22:08;;;;;;;4.10;2.00;;;;;;;12.99;71.84;99757.89;105466;1262;60666;-69
2023/06/13 02:24:35;;;;;;;7.90;3.10;;;;;;;12.98;71.75;99757.88;105253;1257;72616;-68
2023/06/13 02:27:03;;;;;;;6.50;2.40;;;;;;;12.96;71.66;99761.09;105275;1258;70468;-69
2023/06/13 02:29:33;;;;;;;6.70;2.50;;;;;;;12.95;71.61;99769.80;105473;1261;72457;-71
2023/06/13 02:32:00;;;;;;;4.50;2.60;;;;;;;12.93;71.59;99771.95;105222;1264;60422;-68
2023/06/13 02:34:28;;;;;;;4.10;2.40;;;;;;;12.91;71.69;99771.15;105233;1255;60626;-72
2023/06/13 02:36:55;;;;;;;5.30;2.20;;;;;;;12.90;71.83;99768.92;105251;1262;72603;-71
2023/06/13 02:39:23;;;;;;;3.50;2.60;;;;;;;12.98;71.41;99770.52;105347;1257;69737;-72
2023/06/13 02:41:50;;;;;;;5.50;2.00;;;;;;;13.04;71.42;99769.70;105596;1264;73060;-72
2023/06/13 02:44:18;;;;;;;4.50;2.10;;;;;;;13.05;71.36;99761.87;105475;1261;60757;-71
2023/06/13 02:46:45;;;;;;;4.50;2.00;;;;;;;13.04;71.44;99766.38;105279;1258;60521;-71
2023/06/13 02:49:13;;;;;;;4.80;2.00;;;;;;;13.04;71.46;99766.98;105124;1264;74032;-73
2023/06/13 02:51:41;;;;;;;5.50;2.80;;;;;;;13.03;71.54;99766.81;105433;1260;71000;-72
2023/06/13 02:54:08;;;;;;;3.60;2.20;;;;;;;13.04;71.58;99766.91;105261;1257;71389;-73
2023/06/13 02:56:36;;;;;;;6.20;2.00;;;;;;;13.04;71.57;99770.34;105454;1257;60505;-71
2023/06/13 02:59:04;;;;;;;3.00;2.30;;;;;;;13.02;71.29;99767.13;105446;1256;60518;-71
2023/06/13 03:01:32;;;;;;;6.50;2.80;;;;;;;13.00;71.45;99766.36;105361;1260;74411;-73
2023/06/13 03:04:02;;;;;;;5.80;2.40;;;;;;;12.98;71.54;99763.14;105433;1260;68737;-71
2023/06/13 03:06:31;;;;;;;5.40;1.70;;;;;;;13.08;71.31;99760.03;105387;1260;72789;-70
2023/06/13 03:08:58;;;;;;;4.30;2.60;;;;;;;13.15;71.28;99762.36;105044;1258;565936;-72
2023/06/13 03:12:52;;;;;;;4.50;3.10;;;;;;;13.21;71.19;99759.17;102137;1296;603461;-71
2023/06/13 03:15:22;;;;;;;4.40;3.10;;;;;;;13.22;70.90;99763.87;104706;1271;59269;-71
2023/06/13 03:17:49;;;;;;;4.40;2.60;;;;;;;13.24;71.12;99762.63;104662;1267;59382;-72
2023/06/13 03:20:17;;;;;;;4.10;2.70;;;;;;;13.25;71.16;99765.01;104747;1271;72683;-71
2023/06/13 03:22:56;;;;;;;4.20;2.50;;;;;;;13.25;71.05;99761.95;104762;1269;70470;-70
2023/06/13 03:25:24;;;;;;;7.10;3.20;;;;;;;13.24;71.02;99762.54;104715;1263;214306;-69
2023/06/13 03:27:51;;;;;;;3.00;2.50;;;;;;;13.24;70.99;99764.05;105471;1256;60386;-69
2023/06/13 03:30:18;;;;;;;4.60;3.10;;;;;;;13.23;70.99;99761.59;105313;1258;60176;-70
2023/06/13 03:32:45;;;;;;;5.00;2.80;;;;;;;13.24;70.83;99765.26;105308;1258;72506;-71
2023/06/13 03:35:12;;;;;;;7.40;2.70;;;;;;;13.34;70.68;99767.48;105476;1259;70386;-72
2023/06/13 03:37:39;;;;;;;4.40;2.40;;;;;;;13.41;70.54;99769.67;105201;1258;72510;-69
2023/06/13 03:40:08;;;;;;;5.70;2.70;;;;;;;13.42;70.71;99768.10;105367;1258;60447;-70
2023/06/13 03:42:36;;;;;;;4.60;2.70;;;;;;;13.44;70.52;99767.87;105486;1259;60422;-72
2023/06/13 03:45:03;;;;;;;5.90;2.90;;;;;;;13.43;70.30;99764.81;105385;1257;73597;-72
2023/06/13 03:47:30;;;;;;;5.10;2.70;;;;;;;13.43;70.37;99765.16;105287;1259;70570;-70
2023/06/13 03:49:58;;;;;;;3.80;2.50;;;;;;;13.43;70.24;99769.23;105287;1264;73568;-69
2023/06/13 03:52:26;;;;;;;2.70;2.30;;;;;;;13.41;70.16;99768.25;105202;1261;60321;-69
2023/06/13 03:54:53;;;;;;;5.20;2.90;;;;;;;13.38;70.24;99771.63;105195;1256;60499;-68
2023/06/13 03:57:20;;;;;;;3.70;2.60;;;;;;;13.35;70.20;99767.25;105213;1258;73557;-70
2023/06/13 03:59:47;;;;;;;4.60;2.70;;;;;;;13.33;70.26;99770.24;105177;1259;70164;-70
2023/06/13 04:02:14;;;;;;;4.90;2.70;;;;;;;13.32;70.49;99767.85;105336;1257;73180;-73
2023/06/13 04:04:44;;;;;;;3.10;2.10;;;;;;;13.42;70.35;99769.70;105256;1260;61338;-69
2023/06/13 04:07:11;;;;;;;4.30;2.20;;;;;;;13.50;70.27;99767.88;105467;1258;60428;-70
2023/06/13 04:09:38;;;;;;;5.00;3.10;;;;;;;13.49;70.23;99765.77;105449;1257;72706;-71
2023/06/13 04:12:05;;;;;;;3.00;2.60;;;;;;;13.47;70.18;99764.56;105154;1261;69358;-71
2023/06/13 04:14:35;;;;;;;4.80;2.50;;;;;;;13.49;70.29;99767.54;105369;1257;73129;-69
2023/06/13 04:17:03;;;;;;;5.10;3.10;;;;;;;13.53;70.14;99766.69;105134;1259;61641;-70
2023/06/13 04:19:31;;;;;;;5.10;2.50;;;;;;;13.58;69.87;99768.70;105357;1258;60039;-70
2023/06/13 04:21:59;;;;;;;4.50;2.60;;;;;;;13.61;69.69;99766.16;105311;1258;72972;-73
2023/06/13 04:24:26;;;;;;;7.10;3.10;;;;;;;13.66;69.73;99768.18;105114;1259;71281;-71
2023/06/13 04:26:54;;;;;;;6.30;2.60;;;;;;;13.71;69.76;99769.73;105131;1259;73047;-70
2023/06/13 04:29:25;;;;;;;4.80;3.00;;;;;;;13.77;69.85;99769.91;105149;1257;60386;-70
2023/06/13 04:31:53;;;;;;;7.60;2.90;;;;;;;13.82;69.60;99774.79;105305;1259;60202;-72
2023/06/13 04:34:23;;;;;;;3.20;2.70;;;;;;;13.86;69.38;99774.45;105079;1259;72706;-68
2023/06/13 04:36:55;;;;;;;3.90;3.00;;;;;;;13.89;68.73;99774.48;105080;1261;71144;-71
2023/06/13 04:39:24;;;;;;;4.70;3.10;;;;;;;13.91;68.31;99774.88;105212;1258;72411;-72
2023/06/13 04:41:55;;;;;;;4.90;2.90;;;;;;;13.92;68.09;99776.54;105334;1259;60226;-70
2023/06/13 04:44:26;;;;;;;4.40;2.80;;;;;;;13.94;68.37;99772.73;105450;1259;60327;-70
2023/06/13 04:47:01;;;;;;;3.30;2.80;;;;;;;13.97;68.35;99768.86;105358;1261;72976;-70
2023/06/13 04:49:28;;;;;;;4.80;2.80;;;;;;;14.03;68.41;99768.74;105334;1259;70924;-70
2023/06/13 04:51:55;;;;;;;6.50;3.00;;;;;;;14.18;68.09;99765.23;105326;1259;72858;-70
2023/06/13 04:54:23;;;;;;;3.60;2.60;;;;;;;14.32;67.65;99765.95;105273;1259;60408;-70
2023/06/13 04:56:50;;;;;;;7.10;3.10;;;;;;;14.41;67.11;99762.70;105311;1259;60106;-72
2023/06/13 04:59:19;;;;;;;3.80;2.70;;;;;;;14.51;66.91;99766.11;105250;1265;72896;-71
2023/06/13 05:01:47;;;;;;;4.80;2.50;;;;;;;14.61;66.57;99764.84;105514;1259;70797;-72
2023/06/13 05:04:14;;;;;;;3.90;2.70;;;;;;;14.69;66.20;99765.39;105363;1258;72655;-72
2023/06/13 05:06:41;;;;;;;4.80;2.80;;;;;;;14.78;65.75;99757.88;105339;1264;59725;-70
2023/06/13 05:09:10;;;;;;;5.20;3.10;;;;;;;14.86;65.49;99761.64;105543;1257;59671;-71
2023/06/13 05:11:37;;;;;;;4.00;2.60;;;;;;;14.96;65.29;99761.00;105444;1263;74003;-72
2023/06/13 05:14:04;;;;;;;6.60;3.30;;;;;;;15.03;64.85;99758.66;105411;1258;70314;-73
2023/06/13 05:16:31;;;;;;;4.90;2.50;;;;;;;15.10;64.79;99757.67;105582;1264;72854;-72
2023/06/13 05:19:00;;;;;;;6.70;3.00;;;;;;;15.20;65.08;99753.02;106266;1257;60805;-70
2023/06/13 05:21:28;;;;;;;4.40;2.90;;;;;;;15.33;64.82;99754.13;105796;1256;60185;-73
2023/06/13 05:23:55;;;;;;;4.60;2.70;;;;;;;15.44;64.37;99751.58;105872;1258;73384;-70
2023/06/13 05:26:22;;;;;;;7.40;3.70;;;;;;;15.53;64.32;99750.71;105623;1258;70745;-68
2023/06/13 05:28:49;;;;;;;8.70;3.20;;;;;;;15.63;64.51;99748.64;105613;1256;72586;-71
2023/06/13 05:31:16;;;;;;;3.40;3.00;;;;;;;15.73;64.40;99748.34;105596;1256;60044;-71
2023/06/13 05:33:43;;;;;;;5.80;3.50;;;;;;;15.83;63.73;99748.61;105706;1256;60268;-70
2023/06/13 05:36:11;;;;;;;6.00;3.90;;;;;;;15.90;63.28;99747.34;105890;1258;73435;-73
2023/06/13 05:38:39;;;;;;;6.90;4.00;;;;;;;15.97;62.95;99744.31;105876;1256;69344;-71
2023/06/13 05:41:06;;;;;;;4.30;3.20;;;;;;;16.02;62.88;99743.80;106204;1255;71866;-72
2023/06/13 05:43:32;;;;;;;7.90;3.50;;;;;;;16.07;62.93;99746.52;106558;1256;59641;-73
2023/06/13 05:45:59;;;;;;;5.40;3.80;;;;;;;16.11;62.97;99741.86;107538;1254;60201;-73
2023/06/13 05:48:28;;;;;;;5.60;4.00;;;;;;;16.18;62.76;99746.78;108718;1254;72495;-74
2023/06/13 05:50:58;;;;;;;4.50;4.10;;;;;;;16.25;62.61;99741.59;109017;1254;69428;-70
2023/06/13 05:53:26;;;;;;;7.90;4.60;;;;;;;16.34;62.44;99742.27;108700;1254;71411;-74
2023/06/13 05:55:54;;;;;;;4.60;3.80;;;;;;;16.44;62.21;99738.58;108945;1254;58917;-74
2023/06/13 05:58:20;;;;;;;4.80;4.00;;;;;;;16.52;62.37;99742.01;108479;1255;59864;-70
2023/06/13 06:00:47;;;;;;;5.60;3.90;;;;;;;16.58;62.17;99738.87;108648;1254;71801;-72
2023/06/13 06:03:14;;;;;;;6.10;4.20;;;;;;;16.64;61.95;99738.78;109137;1254;69088;-72
2023/06/13 06:05:42;;;;;;;4.70;3.80;;;;;;;16.71;62.15;99743.73;108925;1254;71464;-71
2023/06/13 06:08:09;;;;;;;5.70;4.20;;;;;;;16.76;61.72;99743.39;109020;1254;59313;-71
2023/06/13 06:10:39;;;;;;;6.00;4.40;;;;;;;16.78;61.32;99746.73;109089;1254;60482;-77
2023/06/13 06:13:06;;;;;;;11.90;4.80;;;;;;;16.78;61.34;99742.97;109222;1254;71806;-84
2023/06/13 06:15:34;;;;;;;5.50;3.40;;;;;;;16.77;61.27;99741.83;109282;1255;68973;-80
2023/06/13 06:18:02;;;;;;;6.60;3.70;;;;;;;16.77;61.04;99745.29;109250;1256;71400;-80
2023/06/13 06:20:29;;;;;;;4.50;3.60;;;;;;;16.75;61.00;99744.10;109125;1255;58982;-79
2023/06/13 06:22:58;;;;;;;5.50;3.80;;;;;;;16.78;60.81;99744.55;109196;1254;58260;-81
2023/06/13 06:25:25;;;;;;;9.40;4.60;;;;;;;16.80;60.78;99745.33;109191;1254;72096;-82
2023/06/13 06:27:53;;;;;;;7.10;3.90;;;;;;;16.84;60.78;99743.61;109222;1259;69074;-80
2023/06/13 06:30:19;;;;;;;10.50;4.50;;;;;;;16.89;60.83;99744.18;109236;1255;71137;-80
2023/06/13 06:32:46;;;;;;;5.30;3.80;;;;;;;16.94;60.70;99746.61;109236;1254;59088;-82
2023/06/13 06:35:15;;;;;;;6.20;4.80;;;;;;;16.97;60.55;99745.41;109180;1258;58862;-81
2023/06/13 06:37:43;;;;;;;7.60;5.00;;;;;;;17.03;60.42;99743.74;109193;1255;71859;-79
2023/06/13 06:40:12;;;;;;;4.60;4.00;;;;;;;17.06;60.24;99741.33;109175;1254;68808;-82
2023/06/13 06:42:43;;;;;;;5.70;4.30;;;;;;;17.04;60.18;99745.11;109217;1254;71762;-79
2023/06/13 06:45:12;;;;;;;7.20;4.50;;;;;;;17.03;60.24;99743.54;109056;1254;59701;-81
2023/06/13 06:47:41;;;;;;;5.80;4.80;;;;;;;17.01;59.81;99741.31;109099;1254;59512;-82
2023/06/13 06:50:08;;;;;;;5.60;4.50;;;;;;;16.98;59.51;99734.23;108737;1256;73200;-79
2023/06/13 06:52:35;;;;;;;6.90;4.60;;;;;;;16.95;59.60;99736.30;109115;1255;69233;-80
2023/06/13 06:55:02;;;;;;;6.40;5.30;;;;;;;16.97;59.83;99735.58;108957;1255;71375;-81
2023/06/13 06:57:29;;;;;;;5.70;5.10;;;;;;;17.07;60.14;99740.04;109013;1254;59518;-79
2023/06/13 06:59:56;;;;;;;7.30;5.00;;;;;;;17.23;59.53;99737.53;109003;1254;58871;-80
2023/06/13 07:02:23;;;;;;;6.10;5.10;;;;;;;17.34;58.86;99730.36;109061;1256;71979;-78
2023/06/13 07:04:50;;;;;;;7.20;4.80;;;;;;;17.40;58.97;99729.95;109053;1254;69099;-79
2023/06/13 07:07:17;;;;;;;6.10;5.30;;;;;;;17.50;59.02;99727.91;109083;1255;71262;-79
2023/06/13 07:09:45;;;;;;;8.00;5.40;;;;;;;17.61;58.96;99728.58;108716;1255;59493;-79
2023/06/13 07:12:12;;;;;;;8.70;6.20;;;;;;;17.69;59.07;99722.91;108890;1254;59271;-78
2023/06/13 07:14:40;;;;;;;7.90;5.90;;;;;;;17.79;59.29;99726.00;108681;1255;72970;-79
2023/06/13 07:17:06;;;;;;;5.90;5.20;;;;;;;17.91;58.98;99723.88;108173;1258;69127;-78
2023/06/13 07:19:33;;;;;;;9.40;6.10;;;;;;;17.98;58.41;99721.73;106432;1255;73392;-77
2023/06/13 07:22:00;;;;;;;6.70;5.50;;;;;;;18.03;57.95;99721.78;106227;1255;60469;-80
2023/06/13 07:24:32;;;;;;;9.30;5.60;;;;;;;18.04;57.88;99723.64;105976;1258;60613;-79
2023/06/13 07:26:59;;;;;;;9.80;6.10;;;;;;;18.06;57.92;99720.48;105823;1260;73897;-79
2023/06/13 07:29:27;;;;;;;7.40;5.30;;;;;;;18.12;58.00;99723.04;106320;1258;70286;-78
2023/06/13 07:31:53;;;;;;;8.70;5.60;;;;;;;18.18;57.99;99724.11;106615;1256;72531;-78
2023/06/13 07:34:20;;;;;;;5.40;4.80;;;;;;;18.26;57.34;99719.75;107415;1254;59601;-80
2023/06/13 07:36:54;;;;;;;5.90;5.20;;;;;;;18.31;56.83;99718.73;105852;1256;60674;-79
2023/06/13 07:39:21;;;;;;;8.00;5.10;;;;;;;18.32;57.08;99725.17;105774;1258;73810;-79
2023/06/13 07:41:51;;;;;;;7.60;5.10;;;;;;;18.35;56.71;99727.17;105670;1256;70271;-81
2023/06/13 07:44:18;;;;;;;6.20;5.40;;;;;;;18.35;56.45;99724.39;105916;1256;73306;-79
2023/06/13 07:46:45;;;;;;;9.80;5.40;;;;;;;18.31;56.17;99721.36;106096;1259;60434;-80
2023/06/13 07:49:14;;;;;;;7.90;4.90;;;;;;;18.30;56.16;99724.70;106627;1256;60413;-78
2023/06/13 07:51:41;;;;;;;6.10;5.20;;;;;;;18.30;55.91;99722.83;106531;1256;73564;-78
2023/06/13 07:54:08;;;;;;;7.70;4.90;;;;;;;18.31;56.06;99723.07;106267;1256;70308;-77
2023/06/13 07:56:36;;;;;;;6.80;5.10;;;;;;;18.31;55.77;99723.40;106158;1259;76050;-76
2023/06/13 07:59:03;;;;;;;6.00;4.90;;;;;;;18.33;56.01;99719.86;106207;1254;60460;-79
2023/06/13 08:01:30;;;;;;;5.90;4.50;;;;;;;18.43;56.34;99722.07;105895;1258;60335;-81
2023/06/13 08:03:57;;;;;;;5.70;4.80;;;;;;;18.53;56.25;99724.20;105889;1260;73688;-81
2023/06/13 08:06:24;;;;;;;4.80;3.90;;;;;;;18.63;56.29;99723.62;105920;1254;70387;-82
2023/06/13 08:08:51;;;;;;;4.70;4.10;;;;;;;18.73;55.79;99723.28;106007;1256;71428;-80
2023/06/13 08:11:20;;;;;;;5.50;4.40;;;;;;;18.82;55.44;99718.89;106306;1256;60490;-79
2023/06/13 08:13:47;;;;;;;5.00;4.50;;;;;;;18.92;55.38;99711.03;105926;1258;60436;-81
2023/06/13 08:16:14;;;;;;;4.60;4.20;;;;;;;19.00;55.35;99710.19;105679;1259;73883;-80
2023/06/13 08:18:43;;;;;;;5.60;4.20;;;;;;;19.13;55.37;99709.80;105913;1260;69544;-78
2023/06/13 08:21:10;;;;;;;6.40;4.00;;;;;;;19.24;55.29;99709.20;106305;1255;72500;-77
2023/06/13 08:23:37;;;;;;;6.10;4.80;;;;;;;19.33;54.84;99705.20;106207;1256;60450;-78
2023/06/13 08:26:04;;;;;;;6.40;3.90;;;;;;;19.39;54.45;99705.38;105842;1261;60450;-77
2023/06/13 08:28:33;;;;;;;6.00;3.80;;;;;;;19.46;53.89;99708.90;106251;1260;73860;-78
2023/06/13 08:31:01;;;;;;;7.30;3.90;;;;;;;19.50;53.44;99710.99;106980;1259;71992;-77
2023/06/13 08:33:48;;;;;;;4.10;3.20;;;;;;;19.54;53.01;99710.83;106476;1260;72512;-78
2023/06/13 08:36:36;;;;;;;5.30;3.60;;;;;;;19.56;52.80;99707.27;105734;1256;60536;-79
2023/06/13 08:39:05;;;;;;;4.10;3.30;;;;;;;19.57;52.90;99711.58;105834;1256;60589;-78
2023/06/13 08:41:33;;;;;;;3.80;3.30;;;;;;;19.58;52.60;99712.80;105800;1254;73898;-79
2023/06/13 08:44:01;;;;;;;5.70;3.00;;;;;;;19.64;52.89;99709.11;105560;1261;70314;-77
2023/06/13 08:46:28;;;;;;;7.00;3.30;;;;;;;19.73;52.46;99709.60;105756;1258;72625;-79
2023/06/13 08:48:55;;;;;;;3.30;3.00;;;;;;;19.82;52.53;99707.36;105710;1258;60404;-78
2023/06/13 08:51:22;;;;;;;6.70;3.60;;;;;;;19.94;52.54;99711.05;105745;1259;60409;-76
2023/06/13 08:53:51;;;;;;;4.10;3.70;;;;;;;20.07;52.29;99711.06;105689;1258;72557;-78
2023/06/13 08:56:21;;;;;;;4.70;3.80;;;;;;;20.18;52.18;99713.62;105873;1256;70375;-79
2023/06/13 08:58:49;;;;;;;6.00;3.10;;;;;;;20.30;51.86;99715.09;105762;1261;72467;-77
2023/06/13 09:01:17;;;;;;;4.30;2.90;;;;;;;20.33;51.82;99716.99;106695;1260;60336;-78
2023/06/13 09:03:44;;;;;;;6.80;3.30;;;;;;;20.28;51.65;99720.06;106718;1254;60458;-78
2023/06/13 09:06:13;;;;;;;4.00;3.60;;;;;;;20.21;51.61;99717.27;106087;1261;73751;-75
2023/06/13 09:08:40;;;;;;;3.40;3.10;;;;;;;20.19;51.96;99714.50;105917;1256;70561;-77
2023/06/13 09:11:08;;;;;;;3.90;3.20;;;;;;;20.21;52.02;99718.05;105951;1257;72832;-79
2023/06/13 09:13:35;;;;;;;3.90;3.50;;;;;;;20.21;52.06;99724.05;105854;1259;60742;-77
2023/06/13 09:16:02;;;;;;;4.80;3.50;;;;;;;20.24;51.93;99720.50;105792;1256;60408;-78
2023/06/13 09:18:30;;;;;;;6.00;3.50;;;;;;;20.30;51.87;99717.46;106275;1260;73732;-77
2023/06/13 09:20:57;;;;;;;5.40;3.20;;;;;;;20.35;51.63;99711.44;106372;1260;68894;-76
2023/06/13 09:23:25;;;;;;;5.30;3.60;;;;;;;20.43;51.51;99713.25;106084;1271;71398;-78
2023/06/13 09:25:51;;;;;;;4.90;3.90;;;;;;;20.50;51.45;99710.71;105869;1254;60585;-79
2023/06/13 09:28:28;;;;;;;7.30;3.30;;;;;;;20.55;51.07;99716.66;105884;1256;61880;-78
2023/06/13 09:30:58;;;;;;;6.30;3.20;;;;;;;20.56;50.96;99713.92;105745;1259;74050;-78
2023/06/13 09:33:25;;;;;;;4.20;3.80;;;;;;;20.62;51.09;99716.45;105717;1256;69658;-79
2023/06/13 09:35:52;;;;;;;3.60;3.30;;;;;;;20.80;51.29;99714.92;105647;1261;72403;-79
2023/06/13 09:38:21;;;;;;;4.30;3.90;;;;;;;21.01;50.98;99721.00;105550;1261;60550;-76
2023/06/13 09:40:47;;;;;;;8.00;4.20;;;;;;;21.15;50.45;99722.55;105792;1259;60805;-73
2023/06/13 09:43:14;;;;;;;5.30;3.60;;;;;;;21.23;50.20;99721.13;105755;1258;73654;-74
2023/06/13 09:45:44;;;;;;;8.60;4.30;;;;;;;21.28;50.25;99722.80;105835;1256;70362;-73
2023/06/13 09:48:11;;;;;;;6.70;4.00;;;;;;;21.29;49.85;99717.41;105613;1256;72422;-73
2023/06/13 09:50:40;;;;;;;6.20;4.00;;;;;;;21.32;49.94;99722.36;105807;1254;60499;-74
2023/06/13 09:53:09;;;;;;;3.60;2.90;;;;;;;21.47;50.03;99718.69;105745;1259;60928;-76
2023/06/13 09:55:36;;;;;;;5.60;3.50;;;;;;;21.71;49.91;99718.39;105759;1258;73903;-75
2023/06/13 09:58:03;;;;;;;5.40;4.20;;;;;;;21.94;49.41;99716.58;105818;1259;70355;-75
2023/06/13 10:00:33;;;;;;;4.00;3.60;;;;;;;22.14;48.97;99713.99;105697;1258;71453;-75
2023/06/13 10:03:01;;;;;;;4.10;3.40;;;;;;;22.24;48.77;99722.45;105657;1255;60803;-76
2023/06/13 10:05:38;;;;;;;4.70;3.70;;;;;;;22.38;48.42;99723.14;105663;1260;60449;-76
2023/06/13 10:08:05;;;;;;;3.70;3.30;;;;;;;22.50;48.32;99724.73;105843;1263;73678;-76
2023/06/13 10:10:33;;;;;;;4.10;3.50;;;;;;;22.58;48.05;99723.02;105661;1261;69339;-76
2023/06/13 10:13:02;;;;;;;6.50;3.70;;;;;;;22.69;48.04;99725.06;105658;1259;72655;-74
2023/06/13 10:15:45;;;;;;;4.20;3.30;;;;;;;22.85;47.76;99724.53;106171;1260;60849;-76
2023/06/13 10:18:13;;;;;;;8.90;3.80;;;;;;;22.95;47.03;99728.04;106237;1259;60433;-75
2023/06/13 10:20:40;;;;;;;7.70;4.80;;;;;;;22.98;47.10;99723.30;105863;1261;73861;-75
2023/06/13 10:23:06;;;;;;;7.00;4.30;;;;;;;22.96;46.99;99723.39;105820;1258;69183;-74
2023/06/13 10:25:33;;;;;;;5.10;3.70;;;;;;;22.90;46.95;99717.23;105803;1256;71443;-75
2023/06/13 10:28:06;;;;;;;4.60;3.30;;;;;;;22.78;46.80;99716.85;105746;1254;60550;-72
2023/06/13 10:30:43;;;;;;;7.20;3.60;;;;;;;22.65;47.36;99716.66;106052;1257;60465;-73
2023/06/13 10:33:16;;;;;;;4.50;3.50;;;;;;;22.55;47.44;99711.92;105752;1257;74963;-75
2023/06/13 10:36:02;;;;;;;4.10;3.50;;;;;;;22.43;47.71;99717.27;105752;1260;69034;-76
2023/06/13 10:38:54;;;;;;;5.20;3.40;;;;;;;22.21;47.66;99721.55;105927;1260;72680;-75
2023/06/13 10:41:33;;;;;;;5.10;4.20;;;;;;;21.95;47.73;99723.67;105901;1264;60477;-76
2023/06/13 10:44:03;;;;;;;4.90;3.70;;;;;;;21.70;48.14;99725.11;105642;1259;60433;-74
2023/06/13 10:46:32;;;;;;;4.40;4.00;;;;;;;21.54;48.54;99724.70;105848;1254;74339;-74
2023/06/13 10:49:02;;;;;;;5.70;4.10;;;;;;;21.41;48.82;99722.39;105973;1261;70389;-73
2023/06/13 10:51:30;;;;;;;8.20;4.30;;;;;;;21.33;48.95;99725.83;106008;1258;72618;-77
2023/06/13 10:54:07;;;;;;;5.60;4.20;;;;;;;21.28;49.04;99721.14;105831;1257;60581;-74
2023/06/13 10:56:37;;;;;;;5.10;3.70;;;;;;;21.17;49.14;99720.45;106019;1268;60525;-74
2023/06/13 10:59:09;;;;;;;6.60;4.30;;;;;;;21.09;49.35;99728.84;105649;1258;73840;-73
2023/06/13 11:01:37;;;;;;;5.20;4.20;;;;;;;21.05;49.33;99723.26;106130;1259;69431;-72
2023/06/13 11:04:16;;;;;;;6.70;4.50;;;;;;;20.99;49.62;99724.95;106097;1254;72765;-75
2023/06/13 11:06:44;;;;;;;8.50;4.30;;;;;;;21.00;49.87;99723.14;105814;1255;60477;-75
2023/06/13 11:09:15;;;;;;;5.10;3.90;;;;;;;21.04;49.65;99720.25;105897;1259;60412;-75
2023/06/13 11:11:53;;;;;;;6.10;3.70;;;;;;;20.99;49.74;99723.34;105790;1260;73627;-74
2023/06/13 11:14:41;;;;;;;8.40;4.50;;;;;;;20.94;49.89;99727.61;105831;1262;70256;-73
2023/06/13 11:17:07;;;;;;;6.60;3.80;;;;;;;20.90;50.11;99726.48;105948;1258;72644;-74
2023/06/13 11:19:34;;;;;;;6.10;4.80;;;;;;;20.89;50.24;99721.61;105719;1254;60429;-74
2023/06/13 11:22:02;;;;;;;4.80;4.00;;;;;;;20.88;50.02;99720.88;105722;1256;60398;-76
2023/06/13 11:24:31;;;;;;;8.20;4.30;;;;;;;20.81;49.94;99717.11;105755;1259;73897;-74
2023/06/13 11:27:00;;;;;;;4.90;4.40;;;;;;;20.68;50.17;99718.27;105715;1261;70355;-72
2023/06/13 11:29:28;;;;;;;5.20;4.00;;;;;;;20.57;50.45;99714.56;105670;1259;72663;-76
2023/06/13 11:31:55;;;;;;;5.30;4.80;;;;;;;20.54;50.59;99709.99;105669;1257;60553;-76
2023/06/13 11:34:25;;;;;;;8.80;4.40;;;;;;;20.54;50.59;99707.47;105839;1258;60452;-75